sensor_id;sensor_type;location;lat;lon;timestamp;pressure;altitude;pressure_sealevel;temperature;humidity
21185;BME280;18176;49.502;11.754;2023-02-27T00:00:39;97514.94;;;-2.27;82.97
21185;BME280;18176;49.502;11.754;2023-02-27T00:04:40;97501.94;;;-2.27;83.67
21185;BME280;18176;49.502;11.754;2023-02-27T00:08:40;97513.16;;;-2.26;83.47
21185;BME280;18176;49.502;11.754;2023-02-27T00:12:42;97504.53;;;-2.27;83.49
21185;BME280;18176;49.502;11.754;2023-02-27T00:16:45;97509.47;;;-2.24;83.96
21185;BME280;18176;49.502;11.754;2023-02-27T00:20:46;97505.91;;;-2.23;83.76
21185;BME280;18176;49.502;11.754;2023-02-27T00:24:47;97496.06;;;-2.38;84.03
21185;BME280;18176;49.502;11.754;2023-02-27T00:28:47;97481.03;;;-2.63;84.44
21185;BME280;18176;49.502;11.754;2023-02-27T00:32:50;97507.41;;;-2.49;84.70
21185;BME280;18176;49.502;11.754;2023-02-27T00:36:51;97509.13;;;-2.78;85.13
21185;BME280;18176;49.502;11.754;2023-02-27T00:40:53;97507.16;;;-2.95;85.52
21185;BME280;18176;49.502;11.754;2023-02-27T00:44:54;97508.75;;;-3.13;85.44
21185;BME280;18176;49.502;11.754;2023-02-27T00:48:58;97503.38;;;-3.51;85.94
21185;BME280;18176;49.502;11.754;2023-02-27T00:52:59;97505.75;;;-3.69;87.49
21185;BME280;18176;49.502;11.754;2023-02-27T00:57:03;97501.59;;;-3.81;87.80
21185;BME280;18176;49.502;11.754;2023-02-27T01:01:04;97512.94;;;-3.93;87.88
21185;BME280;18176;49.502;11.754;2023-02-27T01:05:08;97508.41;;;-4.01;88.56
21185;BME280;18176;49.502;11.754;2023-02-27T01:09:09;97493.75;;;-3.91;91.93
21185;BME280;18176;49.502;11.754;2023-02-27T01:13:10;97507.84;;;-3.84;90.21
21185;BME280;18176;49.502;11.754;2023-02-27T01:17:11;97496.63;;;-3.94;90.11
21185;BME280;18176;49.502;11.754;2023-02-27T01:21:14;97505.84;;;-4.01;90.77
21185;BME280;18176;49.502;11.754;2023-02-27T01:25:15;97505.84;;;-4.01;91.20
21185;BME280;18176;49.502;11.754;2023-02-27T01:29:15;97498.00;;;-3.90;93.50
21185;BME280;18176;49.502;11.754;2023-02-27T01:33:16;97496.28;;;-3.80;93.01
21185;BME280;18176;49.502;11.754;2023-02-27T01:37:19;97499.50;;;-3.67;92.85
21185;BME280;18176;49.502;11.754;2023-02-27T01:41:20;97497.00;;;-3.78;93.18
21185;BME280;18176;49.502;11.754;2023-02-27T01:45:29;97498.81;;;-3.69;93.77
21185;BME280;18176;49.502;11.754;2023-02-27T01:49:33;97514.38;;;-3.80;92.95
21185;BME280;18176;49.502;11.754;2023-02-27T01:53:39;97507.72;;;-4.03;92.49
21185;BME280;18176;49.502;11.754;2023-02-27T01:57:44;97507.06;;;-4.16;92.76
21185;BME280;18176;49.502;11.754;2023-02-27T02:01:46;97497.38;;;-4.35;94.34
21185;BME280;18176;49.502;11.754;2023-02-27T02:05:48;97508.03;;;-4.28;93.71
21185;BME280;18176;49.502;11.754;2023-02-27T02:09:58;97517.69;;;-4.30;94.65
21185;BME280;18176;49.502;11.754;2023-02-27T02:14:02;97517.59;;;-4.29;94.46
21185;BME280;18176;49.502;11.754;2023-02-27T02:18:21;97524.06;;;-4.34;93.69
21185;BME280;18176;49.502;11.754;2023-02-27T02:22:59;97534.00;;;-4.50;93.89
21185;BME280;18176;49.502;11.754;2023-02-27T02:27:27;97527.78;;;-4.48;94.70
21185;BME280;18176;49.502;11.754;2023-02-27T02:41:40;97533.75;;;-4.15;95.57
21185;BME280;18176;49.502;11.754;2023-02-27T02:45:59;97536.44;;;-3.85;96.27
21185;BME280;18176;49.502;11.754;2023-02-27T02:50:10;97543.25;;;-3.64;94.75
21185;BME280;18176;49.502;11.754;2023-02-27T02:54:18;97535.53;;;-3.54;94.34
21185;BME280;18176;49.502;11.754;2023-02-27T02:58:28;97541.91;;;-3.37;93.01
21185;BME280;18176;49.502;11.754;2023-02-27T03:02:38;97549.81;;;-3.39;92.34
21185;BME280;18176;49.502;11.754;2023-02-27T03:06:46;97545.19;;;-3.35;91.86
21185;BME280;18176;49.502;11.754;2023-02-27T03:10:55;97554.69;;;-3.45;91.58
21185;BME280;18176;49.502;11.754;2023-02-27T03:15:05;97556.56;;;-3.47;91.56
21185;BME280;18176;49.502;11.754;2023-02-27T03:19:13;97570.72;;;-3.51;91.39
21185;BME280;18176;49.502;11.754;2023-02-27T03:23:23;97564.84;;;-3.53;91.03
21185;BME280;18176;49.502;11.754;2023-02-27T03:27:29;97563.53;;;-3.69;91.21
21185;BME280;18176;49.502;11.754;2023-02-27T03:31:43;97564.78;;;-3.84;90.33
21185;BME280;18176;49.502;11.754;2023-02-27T03:35:51;97568.25;;;-3.94;91.07
21185;BME280;18176;49.502;11.754;2023-02-27T03:40:07;97563.97;;;-4.16;91.46
21185;BME280;18176;49.502;11.754;2023-02-27T03:44:23;97568.22;;;-4.15;91.54
21185;BME280;18176;49.502;11.754;2023-02-27T03:48:28;97556.91;;;-4.14;92.49
21185;BME280;18176;49.502;11.754;2023-02-27T03:52:30;97570.72;;;-3.93;92.83
21185;BME280;18176;49.502;11.754;2023-02-27T03:56:37;97575.84;;;-3.82;92.50
21185;BME280;18176;49.502;11.754;2023-02-27T04:00:39;97569.50;;;-3.89;91.93
21185;BME280;18176;49.502;11.754;2023-02-27T04:04:42;97584.53;;;-4.03;91.87
21185;BME280;18176;49.502;11.754;2023-02-27T04:09:17;97577.88;;;-4.17;91.46
21185;BME280;18176;49.502;11.754;2023-02-27T04:13:54;97590.88;;;-4.50;90.88
21185;BME280;18176;49.502;11.754;2023-02-27T04:18:16;97592.63;;;-4.40;93.16
21185;BME280;18176;49.502;11.754;2023-02-27T04:22:31;97597.25;;;-4.54;92.40
21185;BME280;18176;49.502;11.754;2023-02-27T04:26:41;97597.97;;;-4.63;92.72
21185;BME280;18176;49.502;11.754;2023-02-27T04:30:58;97587.06;;;-4.89;91.92
21185;BME280;18176;49.502;11.754;2023-02-27T04:35:08;97603.63;;;-4.91;91.17
21185;BME280;18176;49.502;11.754;2023-02-27T04:39:21;97606.78;;;-5.10;90.60
21185;BME280;18176;49.502;11.754;2023-02-27T04:43:25;97601.97;;;-5.26;90.96
21185;BME280;18176;49.502;11.754;2023-02-27T04:47:35;97604.22;;;-5.21;91.88
21185;BME280;18176;49.502;11.754;2023-02-27T04:51:47;97595.63;;;-5.22;92.73
21185;BME280;18176;49.502;11.754;2023-02-27T04:56:00;97610.91;;;-5.30;92.37
21185;BME280;18176;49.502;11.754;2023-02-27T05:00:09;97608.06;;;-5.38;92.74
21185;BME280;18176;49.502;11.754;2023-02-27T05:04:15;97613.22;;;-5.38;92.58
21185;BME280;18176;49.502;11.754;2023-02-27T05:08:26;97616.75;;;-5.39;93.51
21185;BME280;18176;49.502;11.754;2023-02-27T05:12:37;97612.97;;;-5.46;93.12
21185;BME280;18176;49.502;11.754;2023-02-27T05:16:46;97622.81;;;-5.51;93.13
21185;BME280;18176;49.502;11.754;2023-02-27T05:21:00;97619.97;;;-5.59;92.28
21185;BME280;18176;49.502;11.754;2023-02-27T05:25:13;97610.78;;;-5.74;91.69
21185;BME280;18176;49.502;11.754;2023-02-27T05:29:28;97626.28;;;-5.85;91.75
21185;BME280;18176;49.502;11.754;2023-02-27T05:33:36;97618.50;;;-5.96;92.42
21185;BME280;18176;49.502;11.754;2023-02-27T05:37:44;97629.28;;;-5.91;93.05
21185;BME280;18176;49.502;11.754;2023-02-27T05:41:51;97634.44;;;-5.91;93.81
21185;BME280;18176;49.502;11.754;2023-02-27T05:46:03;97637.59;;;-5.99;93.54
21185;BME280;18176;49.502;11.754;2023-02-27T05:50:09;97639.28;;;-6.10;93.45
21185;BME280;18176;49.502;11.754;2023-02-27T05:54:21;97641.31;;;-6.03;93.74
21185;BME280;18176;49.502;11.754;2023-02-27T05:58:27;97633.47;;;-6.01;94.58
21185;BME280;18176;49.502;11.754;2023-02-27T06:02:32;97638.69;;;-5.79;95.34
21185;BME280;18176;49.502;11.754;2023-02-27T06:06:34;97636.41;;;-5.60;96.76
21185;BME280;18176;49.502;11.754;2023-02-27T06:10:37;97655.03;;;-5.33;96.94
21185;BME280;18176;49.502;11.754;2023-02-27T06:14:38;97662.78;;;-5.22;95.91
21185;BME280;18176;49.502;11.754;2023-02-27T06:18:41;97668.22;;;-5.14;96.33
21185;BME280;18176;49.502;11.754;2023-02-27T06:22:42;97664.25;;;-4.84;98.21
21185;BME280;18176;49.502;11.754;2023-02-27T06:26:42;97673.28;;;-4.57;98.26
21185;BME280;18176;49.502;11.754;2023-02-27T06:30:43;97674.13;;;-4.45;96.97
21185;BME280;18176;49.502;11.754;2023-02-27T06:34:47;97674.56;;;-4.29;96.71
21185;BME280;18176;49.502;11.754;2023-02-27T06:38:47;97676.44;;;-4.20;95.60
21185;BME280;18176;49.502;11.754;2023-02-27T06:42:48;97687.34;;;-4.16;95.86
21185;BME280;18176;49.502;11.754;2023-02-27T06:46:48;97677.59;;;-4.13;95.42
21185;BME280;18176;49.502;11.754;2023-02-27T06:50:54;97681.13;;;-4.14;93.66
21185;BME280;18176;49.502;11.754;2023-02-27T06:54:55;97683.25;;;-4.08;92.77
21185;BME280;18176;49.502;11.754;2023-02-27T06:58:56;97689.44;;;-3.99;92.75
21185;BME280;18176;49.502;11.754;2023-02-27T07:02:56;97673.78;;;-3.87;93.15
21185;BME280;18176;49.502;11.754;2023-02-27T07:07:03;97661.19;;;-3.60;93.04
21185;BME280;18176;49.502;11.754;2023-02-27T07:11:23;97676.63;;;-2.96;92.50
21185;BME280;18176;49.502;11.754;2023-02-27T07:15:24;97672.38;;;-2.67;89.09
21185;BME280;18176;49.502;11.754;2023-02-27T07:19:24;97679.91;;;-2.34;89.04
21185;BME280;18176;49.502;11.754;2023-02-27T07:23:28;97667.03;;;-2.05;87.72
21185;BME280;18176;49.502;11.754;2023-02-27T07:27:29;97674.28;;;-1.70;86.60
21185;BME280;18176;49.502;11.754;2023-02-27T07:31:32;97670.78;;;-1.50;84.35
21185;BME280;18176;49.502;11.754;2023-02-27T07:35:32;97668.84;;;-1.29;82.53
21185;BME280;18176;49.502;11.754;2023-02-27T07:39:37;97669.63;;;-1.09;79.78
21185;BME280;18176;49.502;11.754;2023-02-27T07:43:37;97668.78;;;-0.91;77.02
21185;BME280;18176;49.502;11.754;2023-02-27T07:47:38;97672.72;;;-0.77;78.67
21185;BME280;18176;49.502;11.754;2023-02-27T07:51:39;97661.63;;;-0.42;78.05
21185;BME280;18176;49.502;11.754;2023-02-27T07:55:43;97666.56;;;-0.12;74.42
21185;BME280;18176;49.502;11.754;2023-02-27T07:59:43;97670.50;;;-0.08;72.20
21185;BME280;18176;49.502;11.754;2023-02-27T08:03:44;97667.22;;;0.35;71.99
21185;BME280;18176;49.502;11.754;2023-02-27T08:07:45;97665.97;;;0.39;70.44
21185;BME280;18176;49.502;11.754;2023-02-27T08:11:48;97673.94;;;0.73;69.75
21185;BME280;18176;49.502;11.754;2023-02-27T08:15:48;97663.91;;;0.86;68.11
21185;BME280;18176;49.502;11.754;2023-02-27T08:19:50;97680.69;;;1.01;66.51
21185;BME280;18176;49.502;11.754;2023-02-27T08:23:51;97675.13;;;0.78;66.36
21185;BME280;18176;49.502;11.754;2023-02-27T08:27:54;97679.88;;;1.26;65.92
21185;BME280;18176;49.502;11.754;2023-02-27T08:31:54;97681.38;;;1.54;64.43
21185;BME280;18176;49.502;11.754;2023-02-27T08:35:55;97689.13;;;1.72;63.01
21185;BME280;18176;49.502;11.754;2023-02-27T08:39:56;97693.06;;;2.18;61.42
21185;BME280;18176;49.502;11.754;2023-02-27T08:44:00;97682.66;;;1.84;59.74
21185;BME280;18176;49.502;11.754;2023-02-27T08:48:01;97688.56;;;1.34;61.81
21185;BME280;18176;49.502;11.754;2023-02-27T08:52:01;97688.75;;;2.00;61.03
21185;BME280;18176;49.502;11.754;2023-02-27T08:56:02;97682.84;;;1.98;60.18
21185;BME280;18176;49.502;11.754;2023-02-27T09:00:08;97687.09;;;2.41;57.45
21185;BME280;18176;49.502;11.754;2023-02-27T09:04:12;97694.81;;;2.67;57.46
21185;BME280;18176;49.502;11.754;2023-02-27T09:08:13;97690.19;;;2.37;58.07
21185;BME280;18176;49.502;11.754;2023-02-27T09:12:13;97690.88;;;3.11;56.60
21185;BME280;18176;49.502;11.754;2023-02-27T09:16:16;97688.28;;;3.19;54.63
21185;BME280;18176;49.502;11.754;2023-02-27T09:20:18;97699.72;;;3.26;54.00
21185;BME280;18176;49.502;11.754;2023-02-27T09:24:19;97703.00;;;2.96;54.51
21185;BME280;18176;49.502;11.754;2023-02-27T09:28:19;97718.03;;;3.18;54.90
21185;BME280;18176;49.502;11.754;2023-02-27T09:32:24;97710.84;;;3.20;53.61
21185;BME280;18176;49.502;11.754;2023-02-27T09:36:25;97709.81;;;3.62;53.04
21185;BME280;18176;49.502;11.754;2023-02-27T09:40:29;97695.63;;;3.95;51.15
21185;BME280;18176;49.502;11.754;2023-02-27T09:44:38;97709.56;;;3.95;51.02
21185;BME280;18176;49.502;11.754;2023-02-27T09:48:51;97708.22;;;3.04;52.81
21185;BME280;18176;49.502;11.754;2023-02-27T09:52:53;97726.66;;;2.54;54.44
21185;BME280;18176;49.502;11.754;2023-02-27T09:57:01;97722.94;;;2.73;54.86
21185;BME280;18176;49.502;11.754;2023-02-27T10:01:09;97694.97;;;2.65;54.56
21185;BME280;18176;49.502;11.754;2023-02-27T10:05:30;97714.94;;;3.07;52.91
21185;BME280;18176;49.502;11.754;2023-02-27T10:09:44;97730.31;;;2.77;53.67
21185;BME280;18176;49.502;11.754;2023-02-27T10:13:55;97732.06;;;2.53;54.46
21185;BME280;18176;49.502;11.754;2023-02-27T10:18:03;97738.94;;;2.70;53.68
21185;BME280;18176;49.502;11.754;2023-02-27T10:22:32;97738.16;;;3.02;53.76
21185;BME280;18176;49.502;11.754;2023-02-27T10:26:41;97731.47;;;3.23;51.72
21185;BME280;18176;49.502;11.754;2023-02-27T10:30:47;97741.28;;;3.45;49.84
21185;BME280;18176;49.502;11.754;2023-02-27T10:34:54;97750.91;;;3.69;48.01
21185;BME280;18176;49.502;11.754;2023-02-27T10:39:05;97741.28;;;3.37;48.03
21185;BME280;18176;49.502;11.754;2023-02-27T10:43:06;97742.72;;;2.83;49.49
21185;BME280;18176;49.502;11.754;2023-02-27T10:47:12;97743.25;;;2.95;49.03
21185;BME280;18176;49.502;11.754;2023-02-27T10:51:26;97743.59;;;4.03;48.01
21185;BME280;18176;49.502;11.754;2023-02-27T10:55:33;97735.75;;;4.03;46.91
21185;BME280;18176;49.502;11.754;2023-02-27T10:59:37;97749.81;;;4.18;46.00
21185;BME280;18176;49.502;11.754;2023-02-27T11:03:42;97739.91;;;5.13;44.35
21185;BME280;18176;49.502;11.754;2023-02-27T11:07:45;97739.22;;;4.96;44.08
21185;BME280;18176;49.502;11.754;2023-02-27T11:11:49;97734.78;;;4.74;44.32
21185;BME280;18176;49.502;11.754;2023-02-27T11:16:10;97743.47;;;4.97;44.00
21185;BME280;18176;49.502;11.754;2023-02-27T11:20:35;97726.59;;;4.38;44.62
21185;BME280;18176;49.502;11.754;2023-02-27T11:24:36;97728.63;;;3.73;45.24
21185;BME280;18176;49.502;11.754;2023-02-27T11:28:40;97726.19;;;3.55;45.82
21185;BME280;18176;49.502;11.754;2023-02-27T11:32:44;97725.22;;;3.48;46.29
21185;BME280;18176;49.502;11.754;2023-02-27T11:36:47;97716.47;;;4.27;45.30
21185;BME280;18176;49.502;11.754;2023-02-27T11:40:55;97717.34;;;5.04;42.65
21185;BME280;18176;49.502;11.754;2023-02-27T11:45:03;97710.84;;;4.69;42.45
21185;BME280;18176;49.502;11.754;2023-02-27T11:49:24;97712.25;;;4.79;42.73
21185;BME280;18176;49.502;11.754;2023-02-27T11:54:05;97704.44;;;4.71;42.65
21185;BME280;18176;49.502;11.754;2023-02-27T11:58:13;97706.38;;;4.16;44.56
21185;BME280;18176;49.502;11.754;2023-02-27T12:02:28;97707.97;;;4.25;43.91
21185;BME280;18176;49.502;11.754;2023-02-27T12:06:39;97698.28;;;3.87;44.61
21185;BME280;18176;49.502;11.754;2023-02-27T12:10:50;97704.06;;;4.74;42.68
21185;BME280;18176;49.502;11.754;2023-02-27T12:15:22;97707.28;;;4.62;42.57
21185;BME280;18176;49.502;11.754;2023-02-27T12:19:37;97694.72;;;4.49;43.20
21185;BME280;18176;49.502;11.754;2023-02-27T12:23:43;97698.81;;;4.74;42.77
21185;BME280;18176;49.502;11.754;2023-02-27T12:27:52;97690.78;;;4.53;43.70
21185;BME280;18176;49.502;11.754;2023-02-27T12:32:00;97692.88;;;4.58;42.00
21185;BME280;18176;49.502;11.754;2023-02-27T12:36:10;97677.94;;;4.81;41.62
21185;BME280;18176;49.502;11.754;2023-02-27T12:40:14;97689.63;;;4.78;42.05
21185;BME280;18176;49.502;11.754;2023-02-27T12:44:41;97691.88;;;5.04;42.09
21185;BME280;18176;49.502;11.754;2023-02-27T12:49:01;97690.16;;;4.43;43.59
21185;BME280;18176;49.502;11.754;2023-02-27T12:53:28;97678.16;;;4.49;43.15
21185;BME280;18176;49.502;11.754;2023-02-27T12:58:07;97681.91;;;5.00;42.28
21185;BME280;18176;49.502;11.754;2023-02-27T13:02:52;97680.19;;;5.44;41.66
21185;BME280;18176;49.502;11.754;2023-02-27T13:07:00;97681.63;;;5.98;40.14
21185;BME280;18176;49.502;11.754;2023-02-27T13:11:20;97681.84;;;5.45;40.62
21185;BME280;18176;49.502;11.754;2023-02-27T13:15:28;97688.31;;;4.74;41.48
21185;BME280;18176;49.502;11.754;2023-02-27T13:19:37;97672.81;;;5.91;41.11
21185;BME280;18176;49.502;11.754;2023-02-27T13:23:56;97673.94;;;6.32;40.81
21185;BME280;18176;49.502;11.754;2023-02-27T13:28:05;97681.50;;;5.77;40.94
21185;BME280;18176;49.502;11.754;2023-02-27T13:32:23;97685.97;;;4.79;42.78
21185;BME280;18176;49.502;11.754;2023-02-27T13:36:43;97692.34;;;4.32;44.02
21185;BME280;18176;49.502;11.754;2023-02-27T13:40:45;97688.50;;;5.33;41.21
21185;BME280;18176;49.502;11.754;2023-02-27T13:44:48;97683.88;;;6.01;40.69
21185;BME280;18176;49.502;11.754;2023-02-27T13:48:49;97679.09;;;5.53;41.54
21185;BME280;18176;49.502;11.754;2023-02-27T13:52:52;97673.25;;;4.91;42.66
21185;BME280;18176;49.502;11.754;2023-02-27T13:57:30;97695.75;;;4.40;43.11
21185;BME280;18176;49.502;11.754;2023-02-27T14:01:35;97693.50;;;3.35;44.60
21185;BME280;18176;49.502;11.754;2023-02-27T14:05:42;97688.88;;;3.53;45.40
21185;BME280;18176;49.502;11.754;2023-02-27T14:09:46;97691.84;;;3.42;45.65
21185;BME280;18176;49.502;11.754;2023-02-27T14:14:05;97692.53;;;2.96;46.46
21185;BME280;18176;49.502;11.754;2023-02-27T14:18:50;97694.16;;;2.81;46.50
21185;BME280;18176;49.502;11.754;2023-02-27T14:23:17;97698.09;;;2.69;46.64
21185;BME280;18176;49.502;11.754;2023-02-27T14:27:24;97702.16;;;3.28;45.69
21185;BME280;18176;49.502;11.754;2023-02-27T14:31:29;97671.91;;;2.93;45.95
21185;BME280;18176;49.502;11.754;2023-02-27T14:35:35;97691.50;;;3.53;45.79
21185;BME280;18176;49.502;11.754;2023-02-27T14:39:37;97694.50;;;2.86;46.79
21185;BME280;18176;49.502;11.754;2023-02-27T14:43:45;97695.47;;;2.85;47.11
21185;BME280;18176;49.502;11.754;2023-02-27T14:47:52;97693.72;;;3.81;46.51
21185;BME280;18176;49.502;11.754;2023-02-27T14:51:56;97686.16;;;5.01;42.98
21185;BME280;18176;49.502;11.754;2023-02-27T14:56:17;97687.09;;;5.74;40.71
21185;BME280;18176;49.502;11.754;2023-02-27T15:00:34;97684.53;;;5.37;41.44
21185;BME280;18176;49.502;11.754;2023-02-27T15:04:35;97674.44;;;5.92;39.09
21185;BME280;18176;49.502;11.754;2023-02-27T15:08:41;97688.72;;;6.33;38.03
21185;BME280;18176;49.502;11.754;2023-02-27T15:12:47;97683.16;;;6.07;38.55
21185;BME280;18176;49.502;11.754;2023-02-27T15:16:52;97676.75;;;6.67;38.34
21185;BME280;18176;49.502;11.754;2023-02-27T15:20:57;97677.41;;;6.90;37.28
21185;BME280;18176;49.502;11.754;2023-02-27T15:25:01;97682.56;;;7.26;36.59
21185;BME280;18176;49.502;11.754;2023-02-27T15:29:06;97680.47;;;7.42;36.02
21185;BME280;18176;49.502;11.754;2023-02-27T15:33:14;97696.03;;;6.02;37.86
21185;BME280;18176;49.502;11.754;2023-02-27T15:37:21;97681.06;;;5.22;38.85
21185;BME280;18176;49.502;11.754;2023-02-27T15:41:25;97682.34;;;4.35;40.15
21185;BME280;18176;49.502;11.754;2023-02-27T15:45:30;97694.94;;;4.09;40.90
21185;BME280;18176;49.502;11.754;2023-02-27T15:49:32;97696.97;;;3.83;41.85
21185;BME280;18176;49.502;11.754;2023-02-27T15:53:35;97687.22;;;3.61;41.80
21185;BME280;18176;49.502;11.754;2023-02-27T15:57:42;97692.03;;;3.09;42.30
21185;BME280;18176;49.502;11.754;2023-02-27T16:01:59;97705.59;;;2.72;43.52
21185;BME280;18176;49.502;11.754;2023-02-27T16:06:01;97720.13;;;2.58;43.70
21185;BME280;18176;49.502;11.754;2023-02-27T16:10:17;97717.94;;;2.38;44.30
21185;BME280;18176;49.502;11.754;2023-02-27T16:14:41;97710.81;;;1.98;45.33
21185;BME280;18176;49.502;11.754;2023-02-27T16:18:47;97723.69;;;1.99;45.78
21185;BME280;18176;49.502;11.754;2023-02-27T16:23:06;97720.34;;;1.81;45.68
21185;BME280;18176;49.502;11.754;2023-02-27T16:27:22;97734.47;;;1.96;45.88
21185;BME280;18176;49.502;11.754;2023-02-27T16:31:28;97737.44;;;2.01;45.96
21185;BME280;18176;49.502;11.754;2023-02-27T16:35:30;97738.06;;;1.95;46.58
21185;BME280;18176;49.502;11.754;2023-02-27T16:39:33;97710.66;;;1.66;46.82
21185;BME280;18176;49.502;11.754;2023-02-27T16:43:34;97742.47;;;1.61;47.64
21185;BME280;18176;49.502;11.754;2023-02-27T16:47:37;97716.97;;;1.12;47.78
21185;BME280;18176;49.502;11.754;2023-02-27T16:51:39;97754.84;;;1.16;48.08
21185;BME280;18176;49.502;11.754;2023-02-27T16:55:41;97743.16;;;0.85;48.85
21185;BME280;18176;49.502;11.754;2023-02-27T16:59:41;97757.09;;;0.76;49.60
21185;BME280;18176;49.502;11.754;2023-02-27T17:03:46;97762.94;;;0.42;50.33
21185;BME280;18176;49.502;11.754;2023-02-27T17:07:47;97772.22;;;0.27;51.35
21185;BME280;18176;49.502;11.754;2023-02-27T17:11:48;97780.25;;;0.16;52.45
21185;BME280;18176;49.502;11.754;2023-02-27T17:15:49;97780.53;;;0.13;52.45
21185;BME280;18176;49.502;11.754;2023-02-27T17:19:53;97781.06;;;0.07;53.07
21185;BME280;18176;49.502;11.754;2023-02-27T17:23:55;97788.41;;;0.21;52.73
21185;BME280;18176;49.502;11.754;2023-02-27T17:27:55;97786.44;;;0.33;51.54
21185;BME280;18176;49.502;11.754;2023-02-27T17:31:56;97785.94;;;0.29;51.46
21185;BME280;18176;49.502;11.754;2023-02-27T17:36:06;97797.69;;;0.33;52.88
21185;BME280;18176;49.502;11.754;2023-02-27T17:40:10;97806.50;;;0.32;51.90
21185;BME280;18176;49.502;11.754;2023-02-27T17:44:11;97803.50;;;0.27;52.17
21185;BME280;18176;49.502;11.754;2023-02-27T17:48:12;97806.00;;;0.19;52.44
21185;BME280;18176;49.502;11.754;2023-02-27T17:52:15;97810.72;;;0.06;52.48
21185;BME280;18176;49.502;11.754;2023-02-27T17:56:17;97816.06;;;0.05;53.60
21185;BME280;18176;49.502;11.754;2023-02-27T18:00:19;97812.31;;;0.17;57.59
21185;BME280;18176;49.502;11.754;2023-02-27T18:04:20;97821.81;;;0.08;54.94
21185;BME280;18176;49.502;11.754;2023-02-27T18:08:23;97826.94;;;0.00;54.62
21185;BME280;18176;49.502;11.754;2023-02-27T18:12:24;97815.47;;;-0.17;55.54
21185;BME280;18176;49.502;11.754;2023-02-27T18:16:25;97824.22;;;-0.18;57.77
21185;BME280;18176;49.502;11.754;2023-02-27T18:20:27;97827.13;;;-0.30;55.61
21185;BME280;18176;49.502;11.754;2023-02-27T18:24:30;97808.63;;;-0.37;55.84
21185;BME280;18176;49.502;11.754;2023-02-27T18:28:31;97828.75;;;-0.29;55.36
21185;BME280;18176;49.502;11.754;2023-02-27T18:32:36;97825.63;;;-0.23;55.55
21185;BME280;18176;49.502;11.754;2023-02-27T18:36:37;97816.06;;;-0.32;55.15
21185;BME280;18176;49.502;11.754;2023-02-27T18:40:41;97828.34;;;-0.34;55.71
21185;BME280;18176;49.502;11.754;2023-02-27T18:44:42;97819.63;;;-0.62;56.35
21185;BME280;18176;49.502;11.754;2023-02-27T18:48:45;97824.03;;;-0.62;56.32
21185;BME280;18176;49.502;11.754;2023-02-27T18:52:46;97821.28;;;-0.71;56.62
21185;BME280;18176;49.502;11.754;2023-02-27T18:56:52;97844.59;;;-0.79;58.02
21185;BME280;18176;49.502;11.754;2023-02-27T19:00:54;97839.50;;;-1.09;59.16
21185;BME280;18176;49.502;11.754;2023-02-27T19:04:59;97835.34;;;-1.30;60.06
21185;BME280;18176;49.502;11.754;2023-02-27T19:09:02;97844.09;;;-1.22;60.71
21185;BME280;18176;49.502;11.754;2023-02-27T19:13:06;97841.09;;;-1.17;60.38
21185;BME280;18176;49.502;11.754;2023-02-27T19:17:08;97841.41;;;-0.92;59.84
21185;BME280;18176;49.502;11.754;2023-02-27T19:21:08;97832.53;;;-0.80;60.13
21185;BME280;18176;49.502;11.754;2023-02-27T19:25:09;97842.38;;;-0.74;60.69
21185;BME280;18176;49.502;11.754;2023-02-27T19:29:14;97838.56;;;-0.69;60.85
21185;BME280;18176;49.502;11.754;2023-02-27T19:33:15;97833.34;;;-0.69;61.36
21185;BME280;18176;49.502;11.754;2023-02-27T19:37:16;97833.88;;;-0.76;61.63
21185;BME280;18176;49.502;11.754;2023-02-27T19:41:20;97845.38;;;-0.59;61.81
21185;BME280;18176;49.502;11.754;2023-02-27T19:45:24;97851.69;;;-0.61;62.11
21185;BME280;18176;49.502;11.754;2023-02-27T19:49:26;97836.91;;;-0.71;62.40
21185;BME280;18176;49.502;11.754;2023-02-27T19:53:28;97857.72;;;-0.71;62.99
21185;BME280;18176;49.502;11.754;2023-02-27T19:57:33;97856.09;;;-0.72;63.05
21185;BME280;18176;49.502;11.754;2023-02-27T20:01:37;97847.72;;;-0.75;63.84
21185;BME280;18176;49.502;11.754;2023-02-27T20:05:38;97850.59;;;-0.88;64.25
21185;BME280;18176;49.502;11.754;2023-02-27T20:09:41;97857.44;;;-0.96;65.18
21185;BME280;18176;49.502;11.754;2023-02-27T20:13:43;97861.69;;;-0.95;65.82
21185;BME280;18176;49.502;11.754;2023-02-27T20:17:48;97854.69;;;-0.85;65.67
21185;BME280;18176;49.502;11.754;2023-02-27T20:21:49;97867.28;;;-1.00;66.10
21185;BME280;18176;49.502;11.754;2023-02-27T20:25:50;97865.88;;;-1.23;67.60
21185;BME280;18176;49.502;11.754;2023-02-27T20:29:52;97852.03;;;-1.33;68.74
21185;BME280;18176;49.502;11.754;2023-02-27T20:33:56;97858.72;;;-1.40;68.93
21185;BME280;18176;49.502;11.754;2023-02-27T20:37:57;97855.56;;;-1.44;69.33
21185;BME280;18176;49.502;11.754;2023-02-27T20:41:58;97856.75;;;-1.57;70.17
21185;BME280;18176;49.502;11.754;2023-02-27T20:46:03;97850.53;;;-1.75;70.63
21185;BME280;18176;49.502;11.754;2023-02-27T20:50:09;97855.81;;;-1.86;71.56
21185;BME280;18176;49.502;11.754;2023-02-27T20:54:13;97850.91;;;-1.89;72.24
21185;BME280;18176;49.502;11.754;2023-02-27T20:58:17;97853.34;;;-1.88;72.13
21185;BME280;18176;49.502;11.754;2023-02-27T21:02:18;97851.03;;;-1.81;72.64
21185;BME280;18176;49.502;11.754;2023-02-27T21:06:22;97834.34;;;-1.88;72.64
21185;BME280;18176;49.502;11.754;2023-02-27T21:10:23;97833.31;;;-2.06;73.20
21185;BME280;18176;49.502;11.754;2023-02-27T21:14:23;97832.41;;;-1.96;74.34
21185;BME280;18176;49.502;11.754;2023-02-27T21:18:24;97834.03;;;-1.95;74.07
21185;BME280;18176;49.502;11.754;2023-02-27T21:22:27;97836.22;;;-2.21;74.02
21185;BME280;18176;49.502;11.754;2023-02-27T21:26:31;97848.53;;;-2.23;76.15
21185;BME280;18176;49.502;11.754;2023-02-27T21:30:37;97844.94;;;-2.31;75.93
21185;BME280;18176;49.502;11.754;2023-02-27T21:34:38;97845.56;;;-2.39;77.28
21185;BME280;18176;49.502;11.754;2023-02-27T21:38:41;97846.53;;;-2.40;76.86
21185;BME280;18176;49.502;11.754;2023-02-27T21:42:44;97847.28;;;-2.49;76.75
21185;BME280;18176;49.502;11.754;2023-02-27T21:46:48;97843.53;;;-2.56;76.85